sensor_id;sensor_type;location;lat;lon;timestamp;P1;durP1;ratioP1;P2;durP2;ratioP2
69623;SDS011;56843;52.020;5.670;2022-09-09T00:03:14;8.18;;;2.67;;
69623;SDS011;56843;52.020;5.670;2022-09-09T00:06:28;9.25;;;2.78;;
69623;SDS011;56843;52.020;5.670;2022-09-09T00:07:59;8.37;;;2.80;;
69623;SDS011;56843;52.020;5.670;2022-09-09T00:09:35;7.57;;;2.60;;
69623;SDS011;56843;52.020;5.670;2022-09-09T00:11:16;6.57;;;2.80;;
69623;SDS011;56843;52.020;5.670;2022-09-09T00:13:00;9.45;;;3.58;;
69623;SDS011;56843;52.020;5.670;2022-09-09T00:16:22;8.82;;;3.35;;
69623;SDS011;56843;52.020;5.670;2022-09-09T00:19:46;8.30;;;4.03;;
69623;SDS011;56843;52.020;5.670;2022-09-09T00:21:25;7.22;;;3.65;;
69623;SDS011;56843;52.020;5.670;2022-09-09T00:24:46;10.47;;;3.33;;
69623;SDS011;56843;52.020;5.670;2022-09-09T00:28:28;8.10;;;4.15;;
69623;SDS011;56843;52.020;5.670;2022-09-09T00:30:23;7.80;;;3.70;;
69623;SDS011;56843;52.020;5.670;2022-09-09T00:32:09;9.07;;;4.13;;
69623;SDS011;56843;52.020;5.670;2022-09-09T00:33:43;8.65;;;3.70;;
69623;SDS011;56843;52.020;5.670;2022-09-09T00:35:17;8.32;;;3.35;;
69623;SDS011;56843;52.020;5.670;2022-09-09T00:36:52;9.55;;;3.35;;
69623;SDS011;56843;52.020;5.670;2022-09-09T00:38:28;10.27;;;3.80;;
69623;SDS011;56843;52.020;5.670;2022-09-09T00:40:37;8.02;;;3.25;;
69623;SDS011;56843;52.020;5.670;2022-09-09T00:43:41;7.97;;;3.57;;
69623;SDS011;56843;52.020;5.670;2022-09-09T00:54:53;7.93;;;3.60;;
69623;SDS011;56843;52.020;5.670;2022-09-09T00:56:37;7.90;;;3.33;;
69623;SDS011;56843;52.020;5.670;2022-09-09T00:58:12;9.45;;;3.42;;
69623;SDS011;56843;52.020;5.670;2022-09-09T00:59:45;7.65;;;3.33;;
69623;SDS011;56843;52.020;5.670;2022-09-09T01:04:53;10.03;;;4.17;;
69623;SDS011;56843;52.020;5.670;2022-09-09T01:06:34;11.13;;;3.40;;
69623;SDS011;56843;52.020;5.670;2022-09-09T01:08:10;8.10;;;3.38;;
69623;SDS011;56843;52.020;5.670;2022-09-09T01:09:56;9.13;;;4.13;;
69623;SDS011;56843;52.020;5.670;2022-09-09T01:11:43;6.63;;;2.88;;
69623;SDS011;56843;52.020;5.670;2022-09-09T01:13:25;8.80;;;4.10;;
69623;SDS011;56843;52.020;5.670;2022-09-09T01:15:08;11.32;;;3.10;;
69623;SDS011;56843;52.020;5.670;2022-09-09T01:16:54;9.50;;;3.00;;
69623;SDS011;56843;52.020;5.670;2022-09-09T01:18:34;10.13;;;3.47;;
69623;SDS011;56843;52.020;5.670;2022-09-09T01:22:01;7.47;;;2.43;;
69623;SDS011;56843;52.020;5.670;2022-09-09T01:24:15;8.20;;;3.13;;
69623;SDS011;56843;52.020;5.670;2022-09-09T01:27:44;9.00;;;3.00;;
69623;SDS011;56843;52.020;5.670;2022-09-09T01:29:18;8.52;;;2.97;;
69623;SDS011;56843;52.020;5.670;2022-09-09T01:30:51;9.55;;;3.20;;
69623;SDS011;56843;52.020;5.670;2022-09-09T01:34:34;8.40;;;2.83;;
69623;SDS011;56843;52.020;5.670;2022-09-09T01:37:51;9.68;;;3.53;;
69623;SDS011;56843;52.020;5.670;2022-09-09T01:39:22;7.37;;;3.30;;
69623;SDS011;56843;52.020;5.670;2022-09-09T01:41:01;10.03;;;3.37;;
69623;SDS011;56843;52.020;5.670;2022-09-09T01:42:43;8.98;;;2.95;;
69623;SDS011;56843;52.020;5.670;2022-09-09T01:44:14;8.55;;;3.38;;
69623;SDS011;56843;52.020;5.670;2022-09-09T01:45:48;6.70;;;3.28;;
69623;SDS011;56843;52.020;5.670;2022-09-09T01:47:21;9.18;;;3.10;;
69623;SDS011;56843;52.020;5.670;2022-09-09T01:49:18;10.77;;;3.10;;
69623;SDS011;56843;52.020;5.670;2022-09-09T01:50:49;7.40;;;2.90;;
69623;SDS011;56843;52.020;5.670;2022-09-09T01:52:19;9.20;;;3.90;;
69623;SDS011;56843;52.020;5.670;2022-09-09T01:53:50;7.45;;;3.72;;
69623;SDS011;56843;52.020;5.670;2022-09-09T01:55:24;9.32;;;3.35;;
69623;SDS011;56843;52.020;5.670;2022-09-09T01:57:15;8.50;;;3.60;;
69623;SDS011;56843;52.020;5.670;2022-09-09T02:00:41;12.95;;;2.97;;
69623;SDS011;56843;52.020;5.670;2022-09-09T02:02:36;11.52;;;3.50;;
69623;SDS011;56843;52.020;5.670;2022-09-09T02:04:26;8.25;;;3.90;;
69623;SDS011;56843;52.020;5.670;2022-09-09T02:06:30;11.80;;;3.17;;
69623;SDS011;56843;52.020;5.670;2022-09-09T02:10:14;10.05;;;3.38;;
69623;SDS011;56843;52.020;5.670;2022-09-09T02:12:00;8.70;;;3.42;;
69623;SDS011;56843;52.020;5.670;2022-09-09T02:13:45;7.53;;;3.40;;
69623;SDS011;56843;52.020;5.670;2022-09-09T02:17:37;8.20;;;3.40;;
69623;SDS011;56843;52.020;5.670;2022-09-09T02:19:23;9.02;;;2.95;;
69623;SDS011;56843;52.020;5.670;2022-09-09T02:21:04;8.38;;;3.58;;
69623;SDS011;56843;52.020;5.670;2022-09-09T02:22:37;8.55;;;3.05;;
69623;SDS011;56843;52.020;5.670;2022-09-09T02:24:11;8.88;;;3.60;;
69623;SDS011;56843;52.020;5.670;2022-09-09T02:25:50;8.70;;;3.05;;
69623;SDS011;56843;52.020;5.670;2022-09-09T02:27:26;7.28;;;3.65;;
69623;SDS011;56843;52.020;5.670;2022-09-09T02:28:59;7.78;;;3.55;;
69623;SDS011;56843;52.020;5.670;2022-09-09T02:30:33;6.65;;;3.30;;
69623;SDS011;56843;52.020;5.670;2022-09-09T02:32:06;7.87;;;3.43;;
69623;SDS011;56843;52.020;5.670;2022-09-09T02:33:44;9.13;;;3.57;;
69623;SDS011;56843;52.020;5.670;2022-09-09T02:35:19;6.90;;;2.95;;
69623;SDS011;56843;52.020;5.670;2022-09-09T02:36:54;8.10;;;3.50;;
69623;SDS011;56843;52.020;5.670;2022-09-09T02:38:28;7.65;;;3.40;;
69623;SDS011;56843;52.020;5.670;2022-09-09T02:40:07;8.10;;;3.42;;
69623;SDS011;56843;52.020;5.670;2022-09-09T02:41:43;7.72;;;3.33;;
69623;SDS011;56843;52.020;5.670;2022-09-09T02:43:14;10.98;;;3.28;;
69623;SDS011;56843;52.020;5.670;2022-09-09T02:44:49;11.17;;;4.07;;
69623;SDS011;56843;52.020;5.670;2022-09-09T02:49:59;7.25;;;3.55;;
69623;SDS011;56843;52.020;5.670;2022-09-09T02:55:18;9.43;;;2.80;;
69623;SDS011;56843;52.020;5.670;2022-09-09T02:58:42;9.90;;;3.45;;
69623;SDS011;56843;52.020;5.670;2022-09-09T03:00:13;6.93;;;3.33;;
69623;SDS011;56843;52.020;5.670;2022-09-09T03:01:43;9.60;;;3.47;;
69623;SDS011;56843;52.020;5.670;2022-09-09T03:03:16;7.68;;;2.97;;
69623;SDS011;56843;52.020;5.670;2022-09-09T03:04:48;7.07;;;3.43;;
69623;SDS011;56843;52.020;5.670;2022-09-09T03:06:21;8.70;;;3.87;;
69623;SDS011;56843;52.020;5.670;2022-09-09T03:07:59;7.78;;;3.55;;
69623;SDS011;56843;52.020;5.670;2022-09-09T03:09:30;8.93;;;3.60;;
69623;SDS011;56843;52.020;5.670;2022-09-09T03:11:00;11.25;;;3.53;;
69623;SDS011;56843;52.020;5.670;2022-09-09T03:12:33;11.82;;;3.15;;
69623;SDS011;56843;52.020;5.670;2022-09-09T03:14:04;9.17;;;3.60;;
69623;SDS011;56843;52.020;5.670;2022-09-09T03:15:35;8.27;;;3.00;;
69623;SDS011;56843;52.020;5.670;2022-09-09T03:17:07;7.03;;;3.13;;
69623;SDS011;56843;52.020;5.670;2022-09-09T03:18:43;6.80;;;3.33;;
69623;SDS011;56843;52.020;5.670;2022-09-09T03:20:15;13.30;;;3.60;;
69623;SDS011;56843;52.020;5.670;2022-09-09T03:21:46;15.03;;;3.90;;
69623;SDS011;56843;52.020;5.670;2022-09-09T03:23:17;8.57;;;3.40;;
69623;SDS011;56843;52.020;5.670;2022-09-09T03:24:49;10.20;;;3.88;;
69623;SDS011;56843;52.020;5.670;2022-09-09T03:26:20;9.15;;;3.58;;
69623;SDS011;56843;52.020;5.670;2022-09-09T03:27:52;13.95;;;3.97;;
69623;SDS011;56843;52.020;5.670;2022-09-09T03:29:25;7.97;;;3.90;;
69623;SDS011;56843;52.020;5.670;2022-09-09T03:30:59;8.87;;;3.50;;
69623;SDS011;56843;52.020;5.670;2022-09-09T03:32:30;11.57;;;4.00;;
69623;SDS011;56843;52.020;5.670;2022-09-09T03:34:01;8.20;;;3.60;;
69623;SDS011;56843;52.020;5.670;2022-09-09T03:35:35;10.27;;;4.30;;
69623;SDS011;56843;52.020;5.670;2022-09-09T03:37:06;12.68;;;4.80;;
69623;SDS011;56843;52.020;5.670;2022-09-09T03:38:37;12.20;;;4.13;;
69623;SDS011;56843;52.020;5.670;2022-09-09T03:40:08;13.52;;;3.92;;
69623;SDS011;56843;52.020;5.670;2022-09-09T03:41:40;8.40;;;3.90;;
69623;SDS011;56843;52.020;5.670;2022-09-09T03:43:10;8.83;;;3.53;;
69623;SDS011;56843;52.020;5.670;2022-09-09T03:44:41;9.70;;;3.85;;
69623;SDS011;56843;52.020;5.670;2022-09-09T03:46:12;12.60;;;3.90;;
69623;SDS011;56843;52.020;5.670;2022-09-09T03:47:43;8.00;;;3.45;;
69623;SDS011;56843;52.020;5.670;2022-09-09T03:49:14;9.77;;;3.80;;
69623;SDS011;56843;52.020;5.670;2022-09-09T03:50:49;11.57;;;4.65;;
69623;SDS011;56843;52.020;5.670;2022-09-09T03:52:21;9.57;;;3.70;;
69623;SDS011;56843;52.020;5.670;2022-09-09T03:53:56;12.40;;;4.67;;
69623;SDS011;56843;52.020;5.670;2022-09-09T03:55:29;10.38;;;3.70;;
69623;SDS011;56843;52.020;5.670;2022-09-09T03:56:59;13.68;;;3.85;;
69623;SDS011;56843;52.020;5.670;2022-09-09T03:58:30;15.37;;;5.23;;
69623;SDS011;56843;52.020;5.670;2022-09-09T04:00:06;10.18;;;4.13;;
69623;SDS011;56843;52.020;5.670;2022-09-09T04:01:46;12.40;;;4.38;;
69623;SDS011;56843;52.020;5.670;2022-09-09T04:03:17;14.57;;;4.77;;
69623;SDS011;56843;52.020;5.670;2022-09-09T04:04:48;13.27;;;4.90;;
69623;SDS011;56843;52.020;5.670;2022-09-09T04:06:19;9.95;;;4.28;;
69623;SDS011;56843;52.020;5.670;2022-09-09T04:07:51;9.20;;;4.15;;
69623;SDS011;56843;52.020;5.670;2022-09-09T04:09:22;11.37;;;4.57;;
69623;SDS011;56843;52.020;5.670;2022-09-09T04:10:55;9.30;;;3.47;;
69623;SDS011;56843;52.020;5.670;2022-09-09T04:12:28;13.10;;;4.50;;
69623;SDS011;56843;52.020;5.670;2022-09-09T04:13:59;7.43;;;3.38;;
69623;SDS011;56843;52.020;5.670;2022-09-09T04:15:30;10.50;;;3.40;;
69623;SDS011;56843;52.020;5.670;2022-09-09T04:17:01;8.43;;;3.67;;
69623;SDS011;56843;52.020;5.670;2022-09-09T04:18:34;9.70;;;3.58;;
69623;SDS011;56843;52.020;5.670;2022-09-09T04:20:05;9.55;;;3.40;;
69623;SDS011;56843;52.020;5.670;2022-09-09T04:21:37;12.40;;;4.53;;
69623;SDS011;56843;52.020;5.670;2022-09-09T04:23:07;12.10;;;4.67;;
69623;SDS011;56843;52.020;5.670;2022-09-09T04:24:38;9.98;;;4.57;;
69623;SDS011;56843;52.020;5.670;2022-09-09T04:26:08;10.10;;;2.87;;
69623;SDS011;56843;52.020;5.670;2022-09-09T04:27:39;10.07;;;4.03;;
69623;SDS011;56843;52.020;5.670;2022-09-09T04:29:10;10.07;;;3.35;;
69623;SDS011;56843;52.020;5.670;2022-09-09T04:30:42;10.80;;;3.83;;
69623;SDS011;56843;52.020;5.670;2022-09-09T04:32:13;9.60;;;4.95;;
69623;SDS011;56843;52.020;5.670;2022-09-09T04:33:44;11.68;;;4.15;;
69623;SDS011;56843;52.020;5.670;2022-09-09T04:35:15;11.07;;;3.60;;
69623;SDS011;56843;52.020;5.670;2022-09-09T04:36:45;13.40;;;3.63;;
69623;SDS011;56843;52.020;5.670;2022-09-09T04:38:16;7.00;;;3.33;;
69623;SDS011;56843;52.020;5.670;2022-09-09T04:39:48;7.43;;;3.17;;
69623;SDS011;56843;52.020;5.670;2022-09-09T04:41:18;12.87;;;3.57;;
69623;SDS011;56843;52.020;5.670;2022-09-09T04:42:52;10.98;;;4.38;;
69623;SDS011;56843;52.020;5.670;2022-09-09T04:44:22;12.50;;;3.80;;
69623;SDS011;56843;52.020;5.670;2022-09-09T04:45:53;11.32;;;4.45;;
69623;SDS011;56843;52.020;5.670;2022-09-09T04:47:26;12.50;;;3.23;;
69623;SDS011;56843;52.020;5.670;2022-09-09T04:48:57;13.65;;;4.53;;
69623;SDS011;56843;52.020;5.670;2022-09-09T04:50:32;8.45;;;3.63;;
69623;SDS011;56843;52.020;5.670;2022-09-09T04:52:03;11.97;;;4.60;;
69623;SDS011;56843;52.020;5.670;2022-09-09T04:53:35;9.77;;;3.90;;
69623;SDS011;56843;52.020;5.670;2022-09-09T04:55:06;11.30;;;3.78;;
69623;SDS011;56843;52.020;5.670;2022-09-09T04:56:38;9.40;;;3.90;;
69623;SDS011;56843;52.020;5.670;2022-09-09T04:58:08;17.20;;;4.60;;
69623;SDS011;56843;52.020;5.670;2022-09-09T04:59:39;17.95;;;5.20;;
69623;SDS011;56843;52.020;5.670;2022-09-09T05:01:19;11.60;;;3.77;;
69623;SDS011;56843;52.020;5.670;2022-09-09T05:02:53;17.55;;;4.82;;
69623;SDS011;56843;52.020;5.670;2022-09-09T05:04:23;14.20;;;3.87;;
69623;SDS011;56843;52.020;5.670;2022-09-09T05:05:54;13.95;;;3.95;;
69623;SDS011;56843;52.020;5.670;2022-09-09T05:07:26;8.45;;;3.45;;
69623;SDS011;56843;52.020;5.670;2022-09-09T05:08:57;12.25;;;3.92;;
69623;SDS011;56843;52.020;5.670;2022-09-09T05:10:32;15.68;;;3.85;;
69623;SDS011;56843;52.020;5.670;2022-09-09T05:12:05;7.00;;;3.40;;
69623;SDS011;56843;52.020;5.670;2022-09-09T05:13:39;17.07;;;3.60;;
69623;SDS011;56843;52.020;5.670;2022-09-09T05:15:10;19.10;;;3.53;;
69623;SDS011;56843;52.020;5.670;2022-09-09T05:16:41;15.38;;;3.50;;
69623;SDS011;56843;52.020;5.670;2022-09-09T05:18:15;12.63;;;3.78;;
69623;SDS011;56843;52.020;5.670;2022-09-09T05:19:47;10.40;;;3.72;;
69623;SDS011;56843;52.020;5.670;2022-09-09T05:21:20;11.30;;;3.22;;
69623;SDS011;56843;52.020;5.670;2022-09-09T05:22:55;17.40;;;3.55;;
69623;SDS011;56843;52.020;5.670;2022-09-09T05:24:28;10.60;;;3.33;;
69623;SDS011;56843;52.020;5.670;2022-09-09T05:26:01;17.05;;;4.10;;
69623;SDS011;56843;52.020;5.670;2022-09-09T05:27:33;16.23;;;4.20;;
69623;SDS011;56843;52.020;5.670;2022-09-09T05:29:05;12.90;;;3.57;;
69623;SDS011;56843;52.020;5.670;2022-09-09T05:30:36;16.38;;;3.05;;
69623;SDS011;56843;52.020;5.670;2022-09-09T05:32:08;11.88;;;3.42;;
69623;SDS011;56843;52.020;5.670;2022-09-09T05:33:40;13.80;;;3.38;;
69623;SDS011;56843;52.020;5.670;2022-09-09T05:35:13;16.00;;;3.47;;
69623;SDS011;56843;52.020;5.670;2022-09-09T05:36:43;25.60;;;3.80;;
69623;SDS011;56843;52.020;5.670;2022-09-09T05:38:14;10.13;;;2.27;;
69623;SDS011;56843;52.020;5.670;2022-09-09T05:39:44;10.90;;;3.17;;
69623;SDS011;56843;52.020;5.670;2022-09-09T05:41:16;21.27;;;4.18;;
69623;SDS011;56843;52.020;5.670;2022-09-09T05:42:47;12.82;;;2.67;;
69623;SDS011;56843;52.020;5.670;2022-09-09T05:44:18;10.65;;;2.83;;
69623;SDS011;56843;52.020;5.670;2022-09-09T05:46:11;16.03;;;3.17;;
69623;SDS011;56843;52.020;5.670;2022-09-09T05:47:41;11.83;;;2.73;;
69623;SDS011;56843;52.020;5.670;2022-09-09T05:49:15;10.57;;;2.53;;
69623;SDS011;56843;52.020;5.670;2022-09-09T05:50:52;8.48;;;3.53;;
69623;SDS011;56843;52.020;5.670;2022-09-09T05:52:23;13.95;;;3.28;;
69623;SDS011;56843;52.020;5.670;2022-09-09T05:53:55;13.02;;;3.67;;
69623;SDS011;56843;52.020;5.670;2022-09-09T05:55:29;16.27;;;3.60;;
69623;SDS011;56843;52.020;5.670;2022-09-09T05:57:00;9.80;;;3.03;;
69623;SDS011;56843;52.020;5.670;2022-09-09T05:58:33;20.67;;;3.37;;
69623;SDS011;56843;52.020;5.670;2022-09-09T06:00:05;13.50;;;3.58;;
69623;SDS011;56843;52.020;5.670;2022-09-09T06:01:44;28.08;;;2.78;;
69623;SDS011;56843;52.020;5.670;2022-09-09T06:03:23;10.52;;;3.55;;
69623;SDS011;56843;52.020;5.670;2022-09-09T06:04:56;11.73;;;3.00;;
69623;SDS011;56843;52.020;5.670;2022-09-09T06:06:33;10.52;;;3.05;;
69623;SDS011;56843;52.020;5.670;2022-09-09T06:08:14;18.53;;;2.70;;
69623;SDS011;56843;52.020;5.670;2022-09-09T06:09:45;13.50;;;2.77;;
69623;SDS011;56843;52.020;5.670;2022-09-09T06:11:17;9.13;;;3.13;;
69623;SDS011;56843;52.020;5.670;2022-09-09T06:12:51;14.73;;;2.53;;
69623;SDS011;56843;52.020;5.670;2022-09-09T06:14:23;10.10;;;2.83;;
69623;SDS011;56843;52.020;5.670;2022-09-09T06:15:56;8.57;;;2.83;;
69623;SDS011;56843;52.020;5.670;2022-09-09T06:17:26;13.82;;;2.92;;
69623;SDS011;56843;52.020;5.670;2022-09-09T06:18:58;9.63;;;2.17;;
69623;SDS011;56843;52.020;5.670;2022-09-09T06:20:29;11.35;;;3.22;;
69623;SDS011;56843;52.020;5.670;2022-09-09T06:22:01;22.83;;;3.40;;
69623;SDS011;56843;52.020;5.670;2022-09-09T06:23:34;18.17;;;3.63;;
69623;SDS011;56843;52.020;5.670;2022-09-09T06:25:08;16.10;;;4.15;;
69623;SDS011;56843;52.020;5.670;2022-09-09T06:26:40;13.20;;;3.30;;
69623;SDS011;56843;52.020;5.670;2022-09-09T06:28:11;12.85;;;3.05;;
69623;SDS011;56843;52.020;5.670;2022-09-09T06:29:41;11.07;;;3.10;;
69623;SDS011;56843;52.020;5.670;2022-09-09T06:31:12;17.77;;;3.80;;
69623;SDS011;56843;52.020;5.670;2022-09-09T06:32:45;13.30;;;2.90;;
69623;SDS011;56843;52.020;5.670;2022-09-09T06:34:16;16.07;;;3.33;;
69623;SDS011;56843;52.020;5.670;2022-09-09T06:35:51;10.32;;;2.70;;
69623;SDS011;56843;52.020;5.670;2022-09-09T06:37:24;13.88;;;3.28;;
69623;SDS011;56843;52.020;5.670;2022-09-09T06:38:56;10.60;;;3.20;;
69623;SDS011;56843;52.020;5.670;2022-09-09T06:40:27;8.03;;;2.40;;
69623;SDS011;56843;52.020;5.670;2022-09-09T06:41:58;15.52;;;3.63;;
69623;SDS011;56843;52.020;5.670;2022-09-09T06:43:55;8.38;;;2.60;;
69623;SDS011;56843;52.020;5.670;2022-09-09T06:45:32;14.57;;;3.30;;
69623;SDS011;56843;52.020;5.670;2022-09-09T06:47:03;11.30;;;3.47;;
69623;SDS011;56843;52.020;5.670;2022-09-09T06:48:33;10.33;;;3.27;;
69623;SDS011;56843;52.020;5.670;2022-09-09T06:50:05;13.85;;;3.38;;
69623;SDS011;56843;52.020;5.670;2022-09-09T06:51:38;8.48;;;2.38;;
69623;SDS011;56843;52.020;5.670;2022-09-09T06:53:15;9.32;;;2.55;;
69623;SDS011;56843;52.020;5.670;2022-09-09T06:54:49;11.98;;;2.72;;
69623;SDS011;56843;52.020;5.670;2022-09-09T06:57:57;11.18;;;2.85;;
69623;SDS011;56843;52.020;5.670;2022-09-09T06:59:28;18.38;;;2.75;;
69623;SDS011;56843;52.020;5.670;2022-09-09T07:01:05;15.23;;;2.60;;
69623;SDS011;56843;52.020;5.670;2022-09-09T07:02:37;17.23;;;3.20;;
69623;SDS011;56843;52.020;5.670;2022-09-09T07:04:09;11.32;;;2.67;;
69623;SDS011;56843;52.020;5.670;2022-09-09T07:05:42;14.63;;;3.20;;
69623;SDS011;56843;52.020;5.670;2022-09-09T07:07:14;12.98;;;2.90;;
69623;SDS011;56843;52.020;5.670;2022-09-09T07:08:50;13.45;;;3.35;;
69623;SDS011;56843;52.020;5.670;2022-09-09T07:10:22;12.95;;;2.97;;
69623;SDS011;56843;52.020;5.670;2022-09-09T07:11:52;7.87;;;2.50;;
69623;SDS011;56843;52.020;5.670;2022-09-09T07:13:25;11.48;;;2.30;;
69623;SDS011;56843;52.020;5.670;2022-09-09T07:14:56;21.42;;;3.60;;
69623;SDS011;56843;52.020;5.670;2022-09-09T07:16:27;12.83;;;3.20;;
69623;SDS011;56843;52.020;5.670;2022-09-09T07:18:01;15.20;;;3.30;;
69623;SDS011;56843;52.020;5.670;2022-09-09T07:19:32;21.73;;;3.53;;
69623;SDS011;56843;52.020;5.670;2022-09-09T07:21:05;14.20;;;3.15;;
69623;SDS011;56843;52.020;5.670;2022-09-09T07:22:36;15.20;;;2.80;;
69623;SDS011;56843;52.020;5.670;2022-09-09T07:24:07;12.90;;;3.42;;
69623;SDS011;56843;52.020;5.670;2022-09-09T07:25:44;6.70;;;2.23;;
69623;SDS011;56843;52.020;5.670;2022-09-09T07:27:15;9.95;;;2.80;;
69623;SDS011;56843;52.020;5.670;2022-09-09T07:28:47;9.70;;;2.92;;
69623;SDS011;56843;52.020;5.670;2022-09-09T07:30:18;9.43;;;2.60;;
69623;SDS011;56843;52.020;5.670;2022-09-09T07:31:49;14.80;;;3.00;;
69623;SDS011;56843;52.020;5.670;2022-09-09T07:33:25;7.38;;;2.47;;
69623;SDS011;56843;52.020;5.670;2022-09-09T07:34:56;9.47;;;2.57;;
69623;SDS011;56843;52.020;5.670;2022-09-09T07:36:31;6.35;;;2.40;;
69623;SDS011;56843;52.020;5.670;2022-09-09T07:38:04;7.03;;;2.45;;
69623;SDS011;56843;52.020;5.670;2022-09-09T07:39:36;11.48;;;2.65;;
69623;SDS011;56843;52.020;5.670;2022-09-09T07:41:07;11.63;;;2.20;;
69623;SDS011;56843;52.020;5.670;2022-09-09T07:42:42;6.32;;;2.05;;
69623;SDS011;56843;52.020;5.670;2022-09-09T07:44:16;8.00;;;2.20;;
69623;SDS011;56843;52.020;5.670;2022-09-09T07:45:57;5.40;;;2.08;;
69623;SDS011;56843;52.020;5.670;2022-09-09T07:47:28;5.53;;;2.15;;
69623;SDS011;56843;52.020;5.670;2022-09-09T07:48:59;6.80;;;2.00;;
69623;SDS011;56843;52.020;5.670;2022-09-09T07:50:32;8.98;;;2.60;;
69623;SDS011;56843;52.020;5.670;2022-09-09T07:52:03;13.00;;;2.20;;
69623;SDS011;56843;52.020;5.670;2022-09-09T07:53:34;12.43;;;2.37;;
69623;SDS011;56843;52.020;5.670;2022-09-09T07:55:06;10.60;;;2.67;;
69623;SDS011;56843;52.020;5.670;2022-09-09T07:56:37;12.18;;;3.00;;
69623;SDS011;56843;52.020;5.670;2022-09-09T07:58:09;7.82;;;1.92;;
69623;SDS011;56843;52.020;5.670;2022-09-09T07:59:40;8.57;;;2.10;;
69623;SDS011;56843;52.020;5.670;2022-09-09T08:01:13;7.53;;;1.80;;
69623;SDS011;56843;52.020;5.670;2022-09-09T08:02:48;14.73;;;3.00;;
69623;SDS011;56843;52.020;5.670;2022-09-09T08:04:19;9.25;;;2.25;;
69623;SDS011;56843;52.020;5.670;2022-09-09T08:05:51;9.80;;;2.20;;
69623;SDS011;56843;52.020;5.670;2022-09-09T08:07:22;7.97;;;2.33;;
69623;SDS011;56843;52.020;5.670;2022-09-09T08:08:57;10.25;;;2.28;;
69623;SDS011;56843;52.020;5.670;2022-09-09T08:10:28;5.70;;;2.10;;
69623;SDS011;56843;52.020;5.670;2022-09-09T08:11:59;11.25;;;2.35;;
69623;SDS011;56843;52.020;5.670;2022-09-09T08:13:31;12.65;;;2.80;;
69623;SDS011;56843;52.020;5.670;2022-09-09T08:15:01;8.13;;;1.95;;
69623;SDS011;56843;52.020;5.670;2022-09-09T08:16:38;8.50;;;2.10;;
69623;SDS011;56843;52.020;5.670;2022-09-09T08:18:10;8.90;;;2.47;;
69623;SDS011;56843;52.020;5.670;2022-09-09T08:19:41;11.75;;;2.00;;
69623;SDS011;56843;52.020;5.670;2022-09-09T08:21:18;6.82;;;2.25;;
69623;SDS011;56843;52.020;5.670;2022-09-09T08:22:50;8.07;;;1.95;;
69623;SDS011;56843;52.020;5.670;2022-09-09T08:24:20;8.90;;;2.40;;
69623;SDS011;56843;52.020;5.670;2022-09-09T08:25:53;8.05;;;2.10;;
69623;SDS011;56843;52.020;5.670;2022-09-09T08:27:23;10.10;;;2.30;;
69623;SDS011;56843;52.020;5.670;2022-09-09T08:28:57;6.13;;;1.38;;
69623;SDS011;56843;52.020;5.670;2022-09-09T08:30:30;7.65;;;1.63;;
69623;SDS011;56843;52.020;5.670;2022-09-09T08:32:00;8.80;;;1.75;;
69623;SDS011;56843;52.020;5.670;2022-09-09T08:33:33;10.70;;;2.10;;
69623;SDS011;56843;52.020;5.670;2022-09-09T08:35:04;7.82;;;1.70;;
69623;SDS011;56843;52.020;5.670;2022-09-09T08:36:36;11.90;;;1.90;;
69623;SDS011;56843;52.020;5.670;2022-09-09T08:38:08;4.43;;;1.50;;
69623;SDS011;56843;52.020;5.670;2022-09-09T08:39:39;9.93;;;1.97;;
69623;SDS011;56843;52.020;5.670;2022-09-09T08:42:52;12.75;;;2.35;;
69623;SDS011;56843;52.020;5.670;2022-09-09T08:46:42;6.13;;;1.70;;
69623;SDS011;56843;52.020;5.670;2022-09-09T08:50:25;9.98;;;2.45;;
69623;SDS011;56843;52.020;5.670;2022-09-09T08:52:29;8.63;;;1.98;;
69623;SDS011;56843;52.020;5.670;2022-09-09T08:54:06;9.63;;;2.15;;
69623;SDS011;56843;52.020;5.670;2022-09-09T08:57:53;5.80;;;1.50;;
69623;SDS011;56843;52.020;5.670;2022-09-09T08:59:28;7.20;;;2.10;;
69623;SDS011;56843;52.020;5.670;2022-09-09T09:08:15;14.52;;;2.38;;
69623;SDS011;56843;52.020;5.670;2022-09-09T09:11:53;4.63;;;1.10;;
69623;SDS011;56843;52.020;5.670;2022-09-09T09:13:42;5.90;;;1.63;;
69623;SDS011;56843;52.020;5.670;2022-09-09T09:15:26;8.23;;;1.80;;
69623;SDS011;56843;52.020;5.670;2022-09-09T09:17:08;8.40;;;1.80;;
69623;SDS011;56843;52.020;5.670;2022-09-09T09:18:43;8.18;;;1.73;;
69623;SDS011;56843;52.020;5.670;2022-09-09T09:20:14;5.45;;;1.23;;
69623;SDS011;56843;52.020;5.670;2022-09-09T09:21:48;9.53;;;2.13;;
69623;SDS011;56843;52.020;5.670;2022-09-09T09:23:25;7.47;;;2.10;;
69623;SDS011;56843;52.020;5.670;2022-09-09T09:26:44;6.47;;;1.30;;
69623;SDS011;56843;52.020;5.670;2022-09-09T09:28:16;9.43;;;2.13;;
69623;SDS011;56843;52.020;5.670;2022-09-09T09:29:50;12.70;;;1.70;;
69623;SDS011;56843;52.020;5.670;2022-09-09T09:31:24;6.30;;;1.55;;
69623;SDS011;56843;52.020;5.670;2022-09-09T09:33:00;7.68;;;1.35;;
69623;SDS011;56843;52.020;5.670;2022-09-09T09:34:36;6.40;;;1.13;;
69623;SDS011;56843;52.020;5.670;2022-09-09T09:36:07;7.23;;;1.77;;
69623;SDS011;56843;52.020;5.670;2022-09-09T09:37:40;10.30;;;1.90;;
69623;SDS011;56843;52.020;5.670;2022-09-09T09:39:27;8.50;;;1.55;;
69623;SDS011;56843;52.020;5.670;2022-09-09T09:41:05;10.00;;;1.70;;
69623;SDS011;56843;52.020;5.670;2022-09-09T09:42:36;7.00;;;1.40;;
69623;SDS011;56843;52.020;5.670;2022-09-09T09:44:24;7.97;;;1.80;;
69623;SDS011;56843;52.020;5.670;2022-09-09T09:45:57;6.25;;;1.45;;
69623;SDS011;56843;52.020;5.670;2022-09-09T09:47:28;10.18;;;1.90;;
69623;SDS011;56843;52.020;5.670;2022-09-09T09:49:09;7.18;;;1.60;;
69623;SDS011;56843;52.020;5.670;2022-09-09T09:50:50;5.07;;;1.55;;
69623;SDS011;56843;52.020;5.670;2022-09-09T09:52:23;7.90;;;1.92;;
69623;SDS011;56843;52.020;5.670;2022-09-09T09:55:47;5.05;;;1.55;;
69623;SDS011;56843;52.020;5.670;2022-09-09T09:57:27;9.07;;;1.95;;
69623;SDS011;56843;52.020;5.670;2022-09-09T09:59:02;6.13;;;1.67;;
69623;SDS011;56843;52.020;5.670;2022-09-09T10:00:38;19.70;;;2.07;;
69623;SDS011;56843;52.020;5.670;2022-09-09T10:02:21;10.07;;;1.50;;
69623;SDS011;56843;52.020;5.670;2022-09-09T10:04:19;13.13;;;2.05;;
69623;SDS011;56843;52.020;5.670;2022-09-09T10:05:56;14.48;;;2.20;;
69623;SDS011;56843;52.020;5.670;2022-09-09T10:07:27;4.72;;;1.40;;
69623;SDS011;56843;52.020;5.670;2022-09-09T10:08:59;6.38;;;1.70;;
69623;SDS011;56843;52.020;5.670;2022-09-09T10:10:35;12.30;;;2.08;;
69623;SDS011;56843;52.020;5.670;2022-09-09T10:14:00;10.55;;;1.85;;
69623;SDS011;56843;52.020;5.670;2022-09-09T10:15:51;9.20;;;1.50;;
69623;SDS011;56843;52.020;5.670;2022-09-09T10:17:36;10.37;;;2.00;;
69623;SDS011;56843;52.020;5.670;2022-09-09T10:19:13;6.00;;;1.30;;
69623;SDS011;56843;52.020;5.670;2022-09-09T10:22:23;10.63;;;1.83;;
69623;SDS011;56843;52.020;5.670;2022-09-09T10:31:02;9.07;;;1.50;;
69623;SDS011;56843;52.020;5.670;2022-09-09T10:39:37;10.30;;;1.80;;
69623;SDS011;56843;52.020;5.670;2022-09-09T10:42:54;7.55;;;1.98;;
69623;SDS011;56843;52.020;5.670;2022-09-09T10:44:34;9.43;;;1.50;;
69623;SDS011;56843;52.020;5.670;2022-09-09T10:48:28;7.28;;;1.67;;
69623;SDS011;56843;52.020;5.670;2022-09-09T10:52:01;6.82;;;2.00;;
69623;SDS011;56843;52.020;5.670;2022-09-09T10:55:41;15.33;;;1.77;;
69623;SDS011;56843;52.020;5.670;2022-09-09T10:57:25;9.70;;;1.90;;
69623;SDS011;56843;52.020;5.670;2022-09-09T11:00:43;8.68;;;2.20;;
69623;SDS011;56843;52.020;5.670;2022-09-09T11:02:29;7.55;;;2.25;;
69623;SDS011;56843;52.020;5.670;2022-09-09T11:04:03;11.35;;;2.15;;
69623;SDS011;56843;52.020;5.670;2022-09-09T11:05:43;10.38;;;1.98;;